ROMMA est une association bénévole à but non lucratif. Votre soutien est indispensable : ADHERER à ROMMA ou FAIRE un DON

St-Christophe/Guiers - Berland - (38, Isère)

Massif de la Chartreuse (533 m)   Longitude: 05° 46' 44" E   Latitude: 45° 25' 43" N Station partenaire n°32
 

Détail journalier du     <<     >>

Température Precipitation Humidité Pression Vent Dir Rafale Dir. rafale Ensol.
Heure (°C) (mm) (%) (hPa) (km/h) (km/h) (min)
01:00 3.607510219NE24E0
02:00 2.2077102110ENE24NE0
03:00 2.0077102110NE19NE0
04:00 2.0076102110NE21ENE0
05:00 1.7077102110ENE21NE0
06:00 1.308010209ENE21E0
07:00 1.307910218ENE19NE0
08:00 1.708010217ENE18ENE0
09:00 4.207610217ENE19NE30
10:00 4.6075102111NE26NNE60
11:00 6.4074102112ENE27NNE60
12:00 8.306810209NE24NE60
13:00 10.506510207O24NNO60
14:00 12.005510196O15OSO55
15:00 13.504710185SSO18SSO60
16:00 14.804810175O11ONO60
17:00 15.804810165ONO16O60
18:00 14.904910167ONO21SO60
19:00 13.6052101610SO19SO45
20:00 12.105810173SO11SO0
21:00 10.906810172---15SSO0
22:00 10.207210183SO16SO0
23:00 7.907910182ESE6SO0
minuit 6.608510181---6E0

Graphique du 15-04-2019

 

Serveur OMMA